Time;durP1;ratioP1;P1;durP2;ratioP2;P2;SDS_P1;SDS_P2;PMS_P1;PMS_P2;Temp;Humidity;BMP_temperature;BMP_pressure;BME280_temperature;BME280_humidity;BME280_pressure;Samples;Min_cycle;Max_cycle;Signal;HPM_P1;HPM_P2
2023/01/12 05:01:42;;;;;;;6.65;2.38;;;13.90;72.10;;;;;;5836277;23;20222;-79
2023/01/12 05:04:07;;;;;;;11.15;2.50;;;13.80;72.10;;;;;;4897489;29;20119;-73
2023/01/12 05:06:33;;;;;;;6.70;2.30;;;13.80;71.90;;;;;;4882641;29;20053;-76
2023/01/12 05:11:43;;;;;;;;;;;13.70;71.20;;;;;;4901354;29;20507;-71
2023/01/12 05:14:08;;;;;;;7.75;2.22;;;13.60;71.40;;;;;;4901114;29;20023;-70
2023/01/12 05:16:34;;;;;;;12.82;3.08;;;13.60;71.80;;;;;;4900451;29;20478;-71
2023/01/12 05:19:00;;;;;;;15.35;2.25;;;13.70;72.20;;;;;;4901207;29;20115;-72
2023/01/12 05:21:25;;;;;;;14.52;2.53;;;13.70;72.40;;;;;;4918701;29;20456;-72
2023/01/12 05:23:52;;;;;;;17.65;2.65;;;13.90;72.60;;;;;;4919788;29;20044;-70
2023/01/12 05:26:18;;;;;;;19.45;3.40;;;14.00;72.60;;;;;;4919580;29;20048;-71
2023/01/12 05:28:47;;;;;;;14.57;3.47;;;14.20;72.60;;;;;;4918367;29;20063;-77
2023/01/12 05:31:13;;;;;;;14.93;2.58;;;14.30;72.80;;;;;;4899915;29;20530;-71
2023/01/12 05:33:40;;;;;;;15.95;3.40;;;14.50;72.90;;;;;;4900544;29;20045;-71
2023/01/12 05:36:12;;;;;;;20.60;3.17;;;14.50;72.90;;;;;;4900909;29;20093;-72
2023/01/12 05:38:38;;;;;;;18.65;2.80;;;14.60;73.20;;;;;;4899894;29;20048;-72
2023/01/12 05:41:13;;;;;;;18.45;2.15;;;14.60;73.00;;;;;;4913186;29;20106;-71
2023/01/12 05:43:49;;;;;;;19.20;3.08;;;14.70;73.30;;;;;;4899753;29;20052;-71
2023/01/12 05:46:39;;;;;;;17.08;2.45;;;14.70;73.40;;;;;;4900447;29;20132;-71
2023/01/12 05:49:05;;;;;;;17.98;2.60;;;14.70;73.50;;;;;;4881902;29;20177;-70
2023/01/12 05:51:31;;;;;;;15.82;2.70;;;14.80;73.70;;;;;;4881398;29;20076;-71
2023/01/12 05:53:57;;;;;;;14.27;2.00;;;14.80;73.70;;;;;;4881971;29;20057;-70
2023/01/12 05:56:26;;;;;;;15.88;2.22;;;14.90;73.80;;;;;;4881666;29;20056;-71
2023/01/12 05:58:57;;;;;;;15.15;1.58;;;14.90;73.80;;;;;;4915523;29;20048;-71
2023/01/12 06:01:24;;;;;;;18.83;2.63;;;15.00;73.70;;;;;;4902610;29;20055;-72
2023/01/12 06:03:51;;;;;;;18.27;2.40;;;15.10;73.60;;;;;;4881137;29;20053;-72
2023/01/12 06:06:18;;;;;;;18.52;1.92;;;15.20;73.50;;;;;;4881605;29;20061;-70
2023/01/12 06:08:44;;;;;;;10.50;1.40;;;15.30;73.20;;;;;;4881578;29;20425;-70
2023/01/12 06:13:55;;;;;;;15.40;2.13;;;15.40;73.80;;;;;;4908564;29;20056;-71
2023/01/12 06:13:56;;;;;;;15.35;1.58;;;15.40;73.00;;;;;;4919074;29;20333;-70
2023/01/12 06:16:22;;;;;;;13.07;1.63;;;15.60;73.10;;;;;;4918433;29;20059;-71
2023/01/12 06:18:47;;;;;;;12.25;1.60;;;15.60;73.10;;;;;;4911600;29;20075;-71
2023/01/12 06:21:13;;;;;;;13.93;1.88;;;15.70;73.10;;;;;;4881859;29;20059;-70
2023/01/12 06:23:39;;;;;;;11.65;1.92;;;15.70;73.10;;;;;;4898770;29;20515;-72
2023/01/12 06:26:07;;;;;;;18.30;2.05;;;15.80;73.00;;;;;;4899801;29;20044;-73
2023/01/12 06:28:38;;;;;;;11.93;2.05;;;15.80;72.70;;;;;;4900283;29;20044;-74
2023/01/12 06:31:06;;;;;;;13.90;1.80;;;15.90;72.60;;;;;;4900238;29;20060;-71
2023/01/12 06:33:33;;;;;;;16.08;2.20;;;15.80;72.50;;;;;;4913166;29;20063;-71
2023/01/12 06:35:59;;;;;;;15.20;2.15;;;15.90;72.80;;;;;;4902378;29;20498;-71
2023/01/12 06:38:27;;;;;;;14.32;2.55;;;15.90;72.80;;;;;;4918860;29;20056;-70
2023/01/12 06:40:56;;;;;;;20.23;3.22;;;15.90;72.90;;;;;;4905441;29;20048;-69
2023/01/12 06:43:22;;;;;;;22.08;3.60;;;16.00;72.90;;;;;;4902338;29;20057;-71
2023/01/12 06:45:51;;;;;;;15.73;2.38;;;16.00;72.80;;;;;;4887106;29;20063;-72
2023/01/12 06:48:21;;;;;;;20.65;2.60;;;16.00;72.80;;;;;;4884778;29;20053;-71
2023/01/12 06:50:46;;;;;;;19.65;3.70;;;16.00;72.80;;;;;;4884637;29;20053;-71
2023/01/12 06:53:12;;;;;;;15.90;3.13;;;16.00;72.80;;;;;;4884858;29;20045;-72
2023/01/12 06:55:38;;;;;;;18.92;2.65;;;16.00;72.70;;;;;;4884920;29;20049;-75
2023/01/12 06:58:04;;;;;;;15.13;2.38;;;16.00;72.60;;;;;;4868387;29;20052;-73
2023/01/12 07:00:31;;;;;;;16.25;3.28;;;16.00;72.80;;;;;;4884885;29;20041;-72
2023/01/12 07:02:57;;;;;;;15.02;3.42;;;16.00;72.80;;;;;;4904127;29;20067;-73
2023/01/12 07:05:23;;;;;;;24.67;3.65;;;16.00;72.70;;;;;;4922306;29;20056;-72
2023/01/12 07:07:55;;;;;;;23.35;4.55;;;16.00;72.60;;;;;;4922268;29;20059;-74
2023/01/12 07:10:21;;;;;;;28.38;4.63;;;16.00;72.60;;;;;;4922141;29;20036;-73
2023/01/12 07:12:46;;;;;;;22.95;3.47;;;16.10;72.70;;;;;;4922117;29;20058;-73
2023/01/12 07:15:14;;;;;;;33.25;4.88;;;16.00;72.80;;;;;;4922168;29;20052;-73
2023/01/12 07:17:39;;;;;;;28.08;4.03;;;16.10;72.80;;;;;;4917432;29;20459;-73
2023/01/12 07:20:06;;;;;;;26.63;5.18;;;16.00;72.60;;;;;;4911826;29;20138;-73
2023/01/12 07:22:32;;;;;;;22.48;3.60;;;16.00;72.50;;;;;;4913285;29;20336;-73
2023/01/12 07:24:57;;;;;;;21.95;4.00;;;16.00;72.40;;;;;;4912003;29;20037;-71
2023/01/12 07:27:23;;;;;;;24.35;4.10;;;16.00;72.30;;;;;;4911647;29;20107;-71
2023/01/12 07:29:49;;;;;;;19.27;3.17;;;15.90;72.10;;;;;;4912459;29;20372;-71
2023/01/12 07:32:15;;;;;;;16.25;3.58;;;15.90;72.00;;;;;;4910929;29;20056;-72
2023/01/12 07:34:40;;;;;;;17.20;3.55;;;15.90;71.90;;;;;;4911834;29;20055;-72
2023/01/12 07:37:06;;;;;;;17.48;3.08;;;15.90;71.80;;;;;;4910100;29;20051;-73
2023/01/12 07:39:32;;;;;;;24.02;4.20;;;15.90;71.60;;;;;;4910468;29;20100;-74
2023/01/12 07:42:32;;;;;;;16.02;3.78;;;15.80;71.60;;;;;;4910031;29;20464;-71
2023/01/12 07:44:51;;;;;;;18.25;3.20;;;15.80;71.20;;;;;;4908351;29;20059;-71
2023/01/12 07:47:16;;;;;;;13.05;3.95;;;15.80;71.10;;;;;;4910453;29;20045;-71
2023/01/12 07:49:42;;;;;;;15.80;3.90;;;15.70;71.00;;;;;;4911531;29;20095;-72
2023/01/12 07:52:11;;;;;;;16.48;3.80;;;15.70;70.80;;;;;;4911674;29;20044;-72
2023/01/12 07:54:37;;;;;;;15.40;2.85;;;15.60;70.80;;;;;;4893111;29;20056;-70
2023/01/12 07:57:06;;;;;;;17.20;3.90;;;15.60;71.00;;;;;;4901738;29;20059;-70
2023/01/12 07:59:32;;;;;;;13.23;3.50;;;15.50;71.00;;;;;;4898709;29;20131;-71
2023/01/12 08:02:05;;;;;;;16.10;3.65;;;15.50;71.20;;;;;;4900143;29;20454;-73
2023/01/12 08:04:36;;;;;;;14.90;3.50;;;15.50;71.30;;;;;;4899733;29;20091;-76
2023/01/12 08:07:02;;;;;;;13.25;3.58;;;15.50;71.40;;;;;;4902092;29;20083;-70
2023/01/12 08:09:27;;;;;;;14.00;3.33;;;15.50;71.70;;;;;;4885487;29;20463;-71
2023/01/12 08:11:53;;;;;;;13.45;3.15;;;15.40;71.60;;;;;;4901992;29;20135;-71
2023/01/12 08:14:27;;;;;;;22.58;3.72;;;15.40;71.80;;;;;;4902062;29;20535;-71
2023/01/12 08:16:55;;;;;;;13.73;2.80;;;15.40;71.80;;;;;;4901433;29;20456;-71
2023/01/12 08:19:27;;;;;;;14.85;3.10;;;15.40;72.00;;;;;;4904356;29;20483;-71
2023/01/12 08:22:00;;;;;;;13.60;2.97;;;15.40;72.30;;;;;;4910539;29;20048;-70
2023/01/12 08:24:31;;;;;;;9.85;3.20;;;15.40;72.50;;;;;;4916551;29;20351;-71
2023/01/12 08:26:59;;;;;;;10.45;2.75;;;15.40;72.50;;;;;;4907579;29;20045;-74
2023/01/12 08:29:40;;;;;;;12.73;2.83;;;15.40;72.60;;;;;;4904185;29;20528;-74
2023/01/12 08:32:07;;;;;;;11.23;2.35;;;15.40;72.60;;;;;;4915237;29;20049;-73
2023/01/12 08:34:34;;;;;;;12.65;2.95;;;15.40;72.60;;;;;;4910058;29;20368;-74
2023/01/12 08:37:05;;;;;;;11.75;2.88;;;15.30;72.40;;;;;;4910143;29;20044;-73
2023/01/12 08:39:34;;;;;;;9.45;2.75;;;15.30;72.30;;;;;;4909277;29;20467;-73
2023/01/12 08:42:00;;;;;;;16.52;3.30;;;15.30;72.30;;;;;;4908606;29;20067;-73
2023/01/12 08:44:31;;;;;;;10.13;3.22;;;15.30;72.30;;;;;;4900483;29;20048;-74
2023/01/12 08:46:57;;;;;;;15.57;3.20;;;15.30;72.30;;;;;;4906828;29;20051;-70
2023/01/12 08:49:25;;;;;;;12.02;3.17;;;15.30;72.50;;;;;;4900319;29;20379;-70
2023/01/12 08:51:51;;;;;;;9.50;3.03;;;15.30;72.60;;;;;;4901182;29;20076;-74
2023/01/12 08:54:19;;;;;;;16.48;3.65;;;15.30;72.50;;;;;;4901813;29;20400;-73
2023/01/12 08:56:45;;;;;;;15.80;3.30;;;15.30;71.90;;;;;;4885103;29;20119;-73
2023/01/12 08:59:11;;;;;;;19.90;4.15;;;15.30;71.90;;;;;;4902085;29;20188;-72
2023/01/12 09:01:37;;;;;;;15.98;3.70;;;15.20;71.90;;;;;;4901518;29;20056;-72
2023/01/12 09:04:04;;;;;;;11.35;3.10;;;15.20;72.10;;;;;;4901072;29;20124;-69
2023/01/12 09:06:35;;;;;;;12.15;2.92;;;15.10;72.20;;;;;;4900931;29;20065;-68
2023/01/12 09:09:04;;;;;;;13.63;2.25;;;15.10;72.40;;;;;;4900237;29;20036;-72
2023/01/12 09:11:31;;;;;;;16.50;2.75;;;15.20;72.50;;;;;;4901674;29;20400;-72
2023/01/12 09:13:57;;;;;;;18.90;2.90;;;15.30;73.20;;;;;;4901133;29;20080;-73
2023/01/12 09:16:25;;;;;;;13.68;3.08;;;15.40;72.60;;;;;;4894405;29;20460;-72
2023/01/12 09:18:51;;;;;;;13.52;3.45;;;15.50;72.70;;;;;;4882130;29;20116;-73
2023/01/12 09:21:19;;;;;;;14.70;3.20;;;15.50;72.60;;;;;;4881926;29;20060;-73
2023/01/12 09:23:45;;;;;;;9.52;2.22;;;15.50;72.60;;;;;;4882198;29;20120;-73
2023/01/12 09:26:14;;;;;;;17.60;2.78;;;15.60;72.70;;;;;;4882565;29;20060;-73
2023/01/12 09:28:40;;;;;;;10.82;2.40;;;15.60;72.60;;;;;;4882018;29;20055;-72
2023/01/12 09:31:15;;;;;;;9.15;2.08;;;15.60;72.80;;;;;;4881619;29;20464;-72
2023/01/12 09:33:41;;;;;;;11.88;3.50;;;15.60;72.60;;;;;;4879623;29;20055;-74
2023/01/12 09:36:09;;;;;;;14.63;3.20;;;15.70;72.80;;;;;;4836061;29;20068;-73
2023/01/12 09:38:37;;;;;;;12.45;3.35;;;15.70;72.90;;;;;;4900045;29;20048;-75
2023/01/12 09:41:15;;;;;;;19.20;4.15;;;15.70;72.80;;;;;;4894499;29;20097;-77
2023/01/12 09:49:17;;;;;;;12.73;3.35;;;15.80;73.10;;;;;;4881457;29;20076;-77
2023/01/12 09:52:15;;;;;;;16.02;3.50;;;15.90;73.20;;;;;;4881122;29;20131;-78
2023/01/12 09:54:41;;;;;;;14.60;3.35;;;16.00;73.50;;;;;;4880846;29;20461;-78
2023/01/12 09:57:46;;;;;;;20.30;3.92;;;16.10;73.50;;;;;;4881714;29;20127;-77
2023/01/12 10:00:17;;;;;;;12.30;3.63;;;16.20;73.80;;;;;;4881697;29;20052;-75
2023/01/12 10:02:53;;;;;;;9.23;2.78;;;16.30;73.40;;;;;;4886297;29;20076;-79
2023/01/12 10:05:29;;;;;;;12.27;2.78;;;16.30;73.40;;;;;;4900316;29;20476;-77
2023/01/12 10:07:55;;;;;;;10.20;3.45;;;16.40;73.50;;;;;;4900456;29;20059;-78
2023/01/12 10:10:21;;;;;;;9.82;3.50;;;16.40;73.50;;;;;;4899289;29;20048;-78
2023/01/12 10:13:03;;;;;;;12.68;3.25;;;16.40;73.40;;;;;;4868024;29;20432;-77
2023/01/12 10:15:31;;;;;;;14.77;2.80;;;16.40;73.20;;;;;;4883388;29;20095;-78
2023/01/12 10:18:03;;;;;;;13.70;3.20;;;16.50;73.10;;;;;;4898951;29;20044;-78
2023/01/12 10:20:31;;;;;;;13.07;3.10;;;16.50;73.00;;;;;;4898821;29;20067;-77
2023/01/12 10:23:07;;;;;;;10.88;3.13;;;16.50;72.90;;;;;;4883489;29;20448;-78
2023/01/12 10:25:43;;;;;;;11.93;3.20;;;16.50;72.80;;;;;;4883623;29;20071;-77
2023/01/12 10:28:28;;;;;;;11.50;2.67;;;16.40;72.80;;;;;;4890611;29;20418;-77
2023/01/12 10:30:55;;;;;;;10.95;2.40;;;16.40;72.60;;;;;;4880137;29;20085;-77
2023/01/12 10:33:23;;;;;;;13.40;3.00;;;16.40;72.70;;;;;;4880900;29;20052;-79
2023/01/12 10:36:07;;;;;;;8.88;3.00;;;16.40;72.70;;;;;;4881486;29;20053;-79
2023/01/12 10:38:37;;;;;;;10.75;3.13;;;16.30;72.70;;;;;;4880907;29;20132;-78
2023/01/12 10:41:04;;;;;;;12.15;2.90;;;16.30;72.70;;;;;;4880434;29;20041;-77
2023/01/12 10:43:33;;;;;;;9.35;3.17;;;16.30;72.80;;;;;;4887328;29;20359;-77
2023/01/12 10:46:13;;;;;;;9.23;2.03;;;16.30;72.90;;;;;;4898726;29;20078;-77
2023/01/12 10:48:52;;;;;;;10.00;2.22;;;16.20;72.80;;;;;;4883019;29;20159;-78
2023/01/12 10:51:21;;;;;;;10.25;2.60;;;16.30;72.90;;;;;;4899570;29;20059;-74
2023/01/12 10:53:52;;;;;;;8.20;1.95;;;16.20;72.90;;;;;;4899395;29;20060;-71
2023/01/12 10:56:40;;;;;;;11.45;2.50;;;16.30;72.90;;;;;;4899791;29;20165;-78
2023/01/12 10:59:12;;;;;;;10.68;3.42;;;16.20;72.60;;;;;;4897474;29;20053;-77
2023/01/12 11:01:45;;;;;;;8.98;2.63;;;16.30;72.60;;;;;;4880566;29;20049;-77
2023/01/12 11:04:14;;;;;;;11.23;2.63;;;16.20;72.80;;;;;;4897400;29;20433;-75
2023/01/12 11:06:53;;;;;;;16.83;3.53;;;16.30;72.70;;;;;;4899594;29;20064;-75
2023/01/12 11:09:28;;;;;;;14.07;3.10;;;16.30;72.70;;;;;;4898966;29;20515;-77
2023/01/12 11:11:56;;;;;;;13.05;2.90;;;16.20;72.20;;;;;;4883108;29;20053;-78
2023/01/12 11:14:27;;;;;;;15.07;3.70;;;16.20;72.00;;;;;;4899415;29;20364;-78
2023/01/12 11:16:56;;;;;;;13.27;3.20;;;16.20;71.90;;;;;;4898639;29;20061;-77
2023/01/12 11:19:39;;;;;;;10.60;2.53;;;16.20;71.70;;;;;;4898336;29;20455;-76
2023/01/12 11:22:15;;;;;;;12.25;3.00;;;16.20;71.60;;;;;;4896764;29;20060;-76
2023/01/12 11:24:56;;;;;;;12.43;2.75;;;16.20;71.70;;;;;;4898837;29;20048;-76
2023/01/12 11:27:32;;;;;;;13.43;3.47;;;16.20;71.80;;;;;;4898914;29;20056;-76
2023/01/12 11:30:06;;;;;;;13.05;2.55;;;16.20;71.80;;;;;;4900352;29;20052;-70
2023/01/12 11:32:52;;;;;;;9.80;2.75;;;16.10;71.80;;;;;;4900108;29;20111;-68
2023/01/12 11:35:39;;;;;;;10.07;2.17;;;16.10;71.90;;;;;;4900833;29;20426;-70
2023/01/12 11:38:15;;;;;;;15.10;2.97;;;16.10;72.10;;;;;;4902210;29;20088;-70
2023/01/12 11:40:42;;;;;;;13.85;2.38;;;16.10;72.10;;;;;;4902250;29;20045;-70
2023/01/12 11:43:54;;;;;;;11.13;2.47;;;16.10;72.10;;;;;;4902083;29;20048;-70
2023/01/12 11:46:48;;;;;;;14.07;2.90;;;16.00;72.10;;;;;;4902869;29;20059;-71
2023/01/12 11:49:39;;;;;;;13.45;2.40;;;16.00;72.50;;;;;;4903130;29;20123;-71
2023/01/12 11:52:09;;;;;;;12.55;2.90;;;16.00;72.70;;;;;;4902726;29;20364;-70
2023/01/12 11:54:37;;;;;;;12.23;2.63;;;16.00;72.30;;;;;;4902350;29;20084;-71
2023/01/12 11:57:11;;;;;;;13.32;2.97;;;16.00;72.00;;;;;;4914946;29;20036;-70
2023/01/12 11:59:56;;;;;;;15.63;2.95;;;15.90;71.80;;;;;;4920658;29;20067;-71
2023/01/12 12:02:39;;;;;;;13.82;3.42;;;15.90;71.80;;;;;;4916561;29;20092;-69
2023/01/12 12:05:35;;;;;;;14.77;2.85;;;15.90;71.90;;;;;;4900354;29;20479;-68
2023/01/12 12:08:06;;;;;;;10.18;2.05;;;15.90;71.80;;;;;;4901821;29;20139;-68
2023/01/12 12:10:34;;;;;;;10.90;2.33;;;15.80;72.00;;;;;;4900735;29;20424;-70
2023/01/12 12:13:30;;;;;;;14.88;2.40;;;15.80;71.80;;;;;;4902390;29;20063;-70
2023/01/12 12:16:21;;;;;;;10.10;2.25;;;15.80;71.70;;;;;;4901957;29;20048;-71
2023/01/12 12:18:46;;;;;;;14.18;2.50;;;15.70;71.70;;;;;;4901813;29;20053;-70
2023/01/12 12:21:29;;;;;;;12.85;2.80;;;15.70;71.90;;;;;;4901390;29;20180;-70
2023/01/12 12:24:15;;;;;;;10.23;2.85;;;15.70;71.90;;;;;;4885328;29;20052;-70
2023/01/12 12:26:54;;;;;;;8.70;2.00;;;15.70;71.90;;;;;;4872561;29;20052;-70
2023/01/12 12:29:36;;;;;;;11.35;2.88;;;15.70;72.10;;;;;;4901687;29;20051;-72
2023/01/12 12:32:22;;;;;;;11.57;2.65;;;15.70;72.20;;;;;;4898010;29;20208;-70
2023/01/12 12:35:06;;;;;;;11.40;1.85;;;15.70;72.20;;;;;;4897963;29;20052;-69
2023/01/12 12:37:47;;;;;;;10.50;2.33;;;15.70;72.30;;;;;;4919884;29;20550;-68
2023/01/12 12:46:50;;;;;;;11.45;2.40;;;15.60;72.20;;;;;;4902490;29;20188;-71
2023/01/12 12:49:22;;;;;;;8.20;2.00;;;15.60;72.20;;;;;;4901011;29;20408;-70
2023/01/12 12:51:49;;;;;;;10.35;2.05;;;15.60;72.20;;;;;;4900667;29;20530;-70
2023/01/12 12:54:17;;;;;;;5.80;1.70;;;15.60;72.30;;;;;;4899601;29;20048;-70
2023/01/12 12:56:45;;;;;;;10.07;2.10;;;15.60;72.30;;;;;;4900767;29;20088;-70
2023/01/12 12:59:32;;;;;;;6.60;1.63;;;15.60;72.40;;;;;;4900507;29;20377;-71
2023/01/12 13:02:02;;;;;;;11.60;2.42;;;15.60;72.50;;;;;;4900981;29;20562;-76
2023/01/12 13:04:45;;;;;;;10.60;2.58;;;15.60;72.60;;;;;;4901257;29;20052;-76
2023/01/12 13:07:17;;;;;;;8.75;2.15;;;15.60;72.60;;;;;;4901169;29;20064;-76
2023/01/12 13:09:44;;;;;;;8.00;2.00;;;15.60;72.60;;;;;;4864033;29;20096;-76
2023/01/12 13:12:30;;;;;;;6.75;1.80;;;15.60;72.50;;;;;;4863708;29;20421;-75
2023/01/12 13:15:23;;;;;;;12.30;2.67;;;15.60;72.50;;;;;;4864273;29;20407;-76
2023/01/12 13:17:51;;;;;;;11.02;2.20;;;15.60;72.40;;;;;;4863920;29;20191;-76
2023/01/12 13:20:17;;;;;;;8.10;2.45;;;15.60;72.40;;;;;;4863770;29;20389;-77
2023/01/12 13:22:49;;;;;;;7.07;1.67;;;15.60;72.40;;;;;;4885249;29;20048;-72
2023/01/12 13:25:15;;;;;;;7.13;1.88;;;15.60;72.20;;;;;;4900851;29;20060;-72
2023/01/12 13:27:59;;;;;;;11.38;2.03;;;15.60;72.30;;;;;;4900822;29;20048;-72
2023/01/12 13:30:27;;;;;;;9.00;2.20;;;15.60;72.20;;;;;;4900570;29;20048;-72
2023/01/12 13:33:20;;;;;;;11.20;2.25;;;15.60;72.20;;;;;;4900711;29;20380;-76
2023/01/12 13:35:46;;;;;;;13.07;2.22;;;15.60;72.00;;;;;;4869062;29;20492;-76
2023/01/12 13:38:42;;;;;;;8.07;2.13;;;15.50;72.00;;;;;;4900566;29;20134;-76
2023/01/12 13:43:13;;;;;;;12.75;2.30;;;15.40;72.20;;;;;;4901225;29;20056;-76
2023/01/12 13:44:05;;;;;;;7.15;2.40;;;15.40;72.50;;;;;;4900597;29;20060;-73
2023/01/12 13:46:54;;;;;;;10.07;1.85;;;15.40;73.00;;;;;;4901038;29;20445;-77
2023/01/12 13:49:30;;;;;;;14.00;2.10;;;15.50;73.50;;;;;;4878524;29;20173;-76
2023/01/12 13:52:05;;;;;;;13.63;2.35;;;15.60;72.90;;;;;;4869266;29;20453;-77
2023/01/12 13:54:32;;;;;;;9.23;1.80;;;15.70;73.40;;;;;;4892082;29;20056;-75
2023/01/12 13:57:04;;;;;;;8.30;2.13;;;15.80;73.30;;;;;;4900428;29;20063;-71
2023/01/12 13:59:29;;;;;;;5.05;1.77;;;15.60;70.70;;;;;;4888620;29;20063;-70
2023/01/12 14:01:56;;;;;;;10.15;2.38;;;15.30;72.00;;;;;;4888752;29;20121;-69
2023/01/12 14:04:58;;;;;;;8.32;1.70;;;15.10;73.30;;;;;;4917926;29;20064;-83
2023/01/12 14:07:44;;;;;;;15.38;2.85;;;15.00;74.00;;;;;;4904387;29;20056;-73
2023/01/12 14:10:21;;;;;;;12.40;2.83;;;15.00;74.50;;;;;;4911324;29;20088;-71
2023/01/12 14:13:25;;;;;;;12.57;2.40;;;15.00;75.00;;;;;;4919470;29;20114;-76
2023/01/12 14:18:45;;;;;;;12.68;2.25;;;15.40;75.10;;;;;;4919077;29;20059;-76
2023/01/12 14:21:27;;;;;;;11.02;2.53;;;15.60;74.50;;;;;;4918860;29;20458;-76
2023/01/12 14:24:12;;;;;;;8.18;1.98;;;15.80;74.20;;;;;;4918938;29;20063;-83
2023/01/12 14:26:38;;;;;;;10.98;2.00;;;15.90;73.70;;;;;;4919183;29;20463;-72
2023/01/12 14:29:06;;;;;;;13.10;2.35;;;16.00;73.40;;;;;;4919038;29;20044;-71
2023/01/12 14:31:38;;;;;;;8.65;2.45;;;16.00;73.10;;;;;;4911371;29;20075;-76
2023/01/12 14:34:05;;;;;;;12.73;2.25;;;16.10;73.00;;;;;;4901480;29;20037;-74
2023/01/12 14:36:40;;;;;;;14.77;2.47;;;16.10;72.90;;;;;;4899631;29;20048;-78
2023/01/12 14:39:09;;;;;;;9.40;1.73;;;16.10;73.40;;;;;;4885709;29;20044;-75
2023/01/12 14:47:07;;;;;;;12.60;2.25;;;16.20;72.80;;;;;;4899411;29;20424;-74
2023/01/12 14:49:35;;;;;;;6.63;1.33;;;16.20;72.90;;;;;;4916047;29;20462;-74
2023/01/12 14:52:12;;;;;;;11.77;2.63;;;16.20;72.90;;;;;;4918714;29;20051;-74
2023/01/12 14:54:38;;;;;;;11.68;2.10;;;16.20;73.10;;;;;;4901421;29;20057;-74
2023/01/12 14:57:26;;;;;;;7.43;2.08;;;16.20;73.30;;;;;;4898651;29;20115;-74
2023/01/12 14:59:53;;;;;;;8.43;1.58;;;16.20;73.40;;;;;;4899443;29;20060;-79
2023/01/12 15:02:33;;;;;;;13.05;1.85;;;16.20;73.40;;;;;;4900205;29;20052;-74
2023/01/12 15:05:27;;;;;;;8.82;1.83;;;16.20;73.50;;;;;;4901632;29;20060;-74
2023/01/12 15:08:08;;;;;;;4.75;1.90;;;16.20;73.30;;;;;;4897444;29;20060;-74
2023/01/12 15:10:43;;;;;;;8.85;2.13;;;16.20;73.40;;;;;;4886906;29;20052;-75
2023/01/12 15:13:31;;;;;;;8.35;1.52;;;16.20;73.40;;;;;;4886797;29;20161;-75
2023/01/12 15:27:12;;;;;;;14.95;3.10;;;16.20;74.00;;;;;;4907902;29;20052;-70
2023/01/12 15:29:37;;;;;;;12.38;2.47;;;16.10;74.00;;;;;;4921805;29;20126;-71
2023/01/12 15:32:08;;;;;;;17.08;2.33;;;16.10;74.40;;;;;;4904965;29;20139;-69
2023/01/12 15:34:34;;;;;;;17.83;2.65;;;16.20;74.90;;;;;;4921815;29;20530;-71
2023/01/12 15:37:00;;;;;;;14.15;2.53;;;16.20;75.10;;;;;;4918818;29;20123;-72
2023/01/12 15:39:26;;;;;;;18.33;2.83;;;16.30;75.10;;;;;;4906729;29;20112;-73
2023/01/12 15:44:37;;;;;;;18.05;3.50;;;16.20;74.50;;;;;;4910518;29;20060;-76
2023/01/12 15:47:04;;;;;;;14.07;3.80;;;16.20;74.90;;;;;;4912855;29;20044;-73
2023/01/12 15:49:30;;;;;;;9.07;2.33;;;16.20;75.60;;;;;;4909413;29;20041;-79
2023/01/12 15:51:55;;;;;;;12.93;2.95;;;16.20;74.60;;;;;;4902583;29;20056;-74
2023/01/12 15:54:21;;;;;;;14.77;3.65;;;16.10;73.90;;;;;;4902480;29;20044;-77
2023/01/12 15:56:47;;;;;;;14.57;3.00;;;16.00;74.10;;;;;;4902076;29;20041;-71
2023/01/12 15:59:13;;;;;;;15.45;3.42;;;15.80;74.20;;;;;;4902417;29;20068;-72
2023/01/12 16:01:42;;;;;;;12.48;2.95;;;15.60;75.10;;;;;;4903126;29;20048;-73
2023/01/12 16:04:17;;;;;;;13.52;3.13;;;15.40;75.60;;;;;;4902573;29;20064;-72
2023/01/12 16:06:43;;;;;;;15.95;3.15;;;15.30;76.10;;;;;;4901740;29;20059;-72
2023/01/12 16:09:09;;;;;;;17.92;3.70;;;15.30;77.10;;;;;;4899145;29;20052;-71
2023/01/12 16:11:34;;;;;;;15.10;3.63;;;15.40;77.50;;;;;;4900963;29;20053;-77
2023/01/12 16:14:00;;;;;;;19.00;4.35;;;15.50;77.70;;;;;;4901554;29;20127;-72
2023/01/12 16:16:27;;;;;;;18.48;4.80;;;15.60;78.20;;;;;;4884970;29;20044;-78
2023/01/12 16:19:00;;;;;;;29.70;4.88;;;15.70;78.80;;;;;;4886186;29;20136;-77
2023/01/12 16:21:27;;;;;;;18.80;3.63;;;15.80;79.00;;;;;;4901810;29;20685;-76
2023/01/12 16:23:56;;;;;;;26.42;4.95;;;15.90;79.70;;;;;;4900733;29;20127;-75
2023/01/12 16:26:23;;;;;;;19.85;4.50;;;15.90;79.40;;;;;;4884694;29;20060;-77
2023/01/12 16:28:48;;;;;;;23.30;4.82;;;16.00;79.60;;;;;;4901311;29;20464;-78
2023/01/12 16:31:14;;;;;;;17.48;3.83;;;16.00;79.40;;;;;;4901067;29;20051;-77
2023/01/12 16:33:42;;;;;;;24.75;4.47;;;16.00;79.30;;;;;;4902004;29;20056;-75
2023/01/12 16:36:08;;;;;;;20.83;4.45;;;16.00;79.40;;;;;;4885079;29;20503;-76
2023/01/12 16:38:35;;;;;;;14.77;3.47;;;16.00;79.60;;;;;;4901995;29;20049;-75
2023/01/12 16:41:20;;;;;;;19.38;3.80;;;16.10;79.60;;;;;;4901630;29;20060;-77
2023/01/12 16:43:46;;;;;;;21.23;3.67;;;16.10;79.80;;;;;;4901912;29;20070;-77
2023/01/12 16:46:12;;;;;;;22.80;4.32;;;16.10;79.50;;;;;;4912616;29;20446;-77
2023/01/12 16:48:40;;;;;;;14.48;2.60;;;16.10;79.50;;;;;;4920632;29;20132;-77
2023/01/12 16:51:14;;;;;;;16.45;2.90;;;16.00;79.40;;;;;;4920134;29;20119;-77
2023/01/12 16:53:41;;;;;;;16.80;3.10;;;16.10;79.40;;;;;;4903763;29;20065;-78
2023/01/12 16:56:11;;;;;;;19.45;3.45;;;16.00;79.20;;;;;;4920886;29;20127;-77
2023/01/12 16:58:37;;;;;;;18.10;2.80;;;16.00;79.00;;;;;;4920351;29;20051;-80
2023/01/12 18:27:19;;;;;;;10.93;3.22;;;15.20;74.30;;;;;;4870923;29;20497;-74
2023/01/12 18:29:45;;;;;;;12.05;2.67;;;15.30;74.30;;;;;;4881462;29;20080;-76
2023/01/12 18:32:10;;;;;;;8.93;2.80;;;15.30;74.30;;;;;;4866038;29;20053;-75
2023/01/12 18:34:38;;;;;;;14.95;2.35;;;15.30;74.40;;;;;;4862885;29;20384;-78
2023/01/12 18:37:03;;;;;;;10.88;2.47;;;15.30;74.50;;;;;;4861606;29;20049;-78
2023/01/12 18:39:29;;;;;;;8.43;2.05;;;15.40;74.50;;;;;;4864806;29;20433;-77
2023/01/12 18:44:39;;;;;;;8.35;2.08;;;15.40;74.30;;;;;;4882877;29;20053;-78
2023/01/12 18:49:49;;;;;;;8.80;3.05;;;15.50;74.50;;;;;;4885167;29;20057;-78
2023/01/12 18:55:03;;;;;;;7.97;2.40;;;15.50;74.70;;;;;;4884790;29;20057;-75
2023/01/12 18:57:31;;;;;;;10.43;2.47;;;15.50;74.60;;;;;;4884784;29;20128;-77
2023/01/12 19:00:08;;;;;;;7.97;1.92;;;15.50;74.60;;;;;;4885312;29;20201;-73
2023/01/12 19:02:34;;;;;;;8.18;2.28;;;15.50;74.70;;;;;;4884832;29;20095;-73
2023/01/12 19:10:28;;;;;;;9.27;2.10;;;15.60;74.90;;;;;;4853870;29;20049;-72
2023/01/12 19:18:25;;;;;;;12.90;2.42;;;15.60;74.90;;;;;;4847369;29;20374;-77
2023/01/12 19:20:50;;;;;;;18.77;3.35;;;15.60;74.30;;;;;;4859934;29;20052;-75
2023/01/12 19:28:46;;;;;;;17.73;5.05;;;15.50;73.50;;;;;;4884166;29;20049;-75
2023/01/12 19:31:13;;;;;;;20.08;3.88;;;15.50;73.30;;;;;;4884997;29;20060;-74
2023/01/12 19:33:43;;;;;;;14.48;3.75;;;15.50;73.20;;;;;;4872953;29;20433;-77
2023/01/12 19:36:12;;;;;;;10.82;2.70;;;15.50;73.10;;;;;;4849331;29;20090;-76
2023/01/12 19:38:41;;;;;;;19.27;3.72;;;15.40;72.90;;;;;;4849292;29;20061;-77
2023/01/12 19:41:13;;;;;;;12.35;3.17;;;15.40;72.90;;;;;;4865349;29;20061;-76
2023/01/12 19:43:43;;;;;;;12.55;3.05;;;15.40;72.90;;;;;;4865995;29;20361;-75
2023/01/12 19:46:11;;;;;;;14.02;3.13;;;15.40;72.90;;;;;;4865263;29;20498;-77
2023/01/12 19:48:37;;;;;;;17.15;3.70;;;15.30;72.80;;;;;;4849501;29;20197;-79
2023/01/12 19:51:05;;;;;;;16.73;5.20;;;15.30;72.80;;;;;;4864383;29;20435;-76
2023/01/12 19:53:31;;;;;;;15.68;3.60;;;15.30;72.70;;;;;;4849334;29;20128;-76
2023/01/12 19:55:57;;;;;;;15.63;3.83;;;15.30;72.60;;;;;;4865149;29;20133;-76
2023/01/12 19:58:23;;;;;;;16.80;4.55;;;15.30;72.70;;;;;;4853210;29;20411;-77
2023/01/12 20:00:49;;;;;;;13.73;3.20;;;15.20;72.90;;;;;;4837799;29;20060;-75
2023/01/12 20:03:20;;;;;;;12.98;3.33;;;15.30;73.00;;;;;;4879457;29;20379;-77
2023/01/12 20:05:49;;;;;;;13.38;3.60;;;15.30;73.20;;;;;;4881332;29;20092;-76
2023/01/12 20:08:15;;;;;;;13.18;3.42;;;15.30;73.20;;;;;;4865368;29;20490;-76
2023/01/12 20:10:41;;;;;;;14.32;3.03;;;15.30;73.30;;;;;;4864898;29;20136;-77
2023/01/12 20:13:09;;;;;;;12.30;3.45;;;15.30;73.40;;;;;;4864594;29;20149;-76
2023/01/12 20:15:37;;;;;;;9.35;2.78;;;15.40;73.50;;;;;;4865618;29;20068;-76
2023/01/12 20:18:03;;;;;;;12.38;3.85;;;15.40;73.60;;;;;;4868294;29;20056;-77
2023/01/12 20:20:29;;;;;;;12.82;3.25;;;15.40;73.60;;;;;;4883052;29;20049;-77
2023/01/12 20:22:55;;;;;;;11.20;2.72;;;15.40;73.50;;;;;;4883268;29;20055;-78
2023/01/12 20:25:22;;;;;;;12.15;3.80;;;15.40;73.50;;;;;;4883100;29;20144;-78
2023/01/12 20:27:48;;;;;;;9.43;3.00;;;15.40;73.60;;;;;;4851719;29;20084;-77